< < Back
Terminal Aerodrome Forecast


Current Version              Previous Versions:   1  2  3  4  5  6  7  8  9  

Terminal Aerodrome Forecast

102
FTAK31 PAJN 270700 AAA
TAFAGS
TAF AMD
PAGS 270740Z 2708/2806 30017G27KT P6SM SKC
     FM280400 34012KT P6SM SKC
      AMD NOT SKED=

Latest METAR

942
SAUS70 KWBC 260900 RRX
MTRAGS
METAR KAGS 270853Z AUTO 24006KT 10SM CLR 06/00 A3007 RMK AO2 SLP183
T00610000 56006


USA.gov is the U.S. government's official web portal to all federal, state and local government web resources and services.